createdAt,value
2019-02-04T00:00:48.658Z,0.90
2019-02-04T00:03:30.352Z,0.90
2019-02-04T00:06:11.802Z,1.00
2019-02-04T00:08:52.811Z,0.90
2019-02-04T00:11:34.041Z,0.90
2019-02-04T00:14:03.351Z,1.00
2019-02-04T00:16:51.849Z,1.00
2019-02-04T00:19:40.256Z,1.00
2019-02-04T00:22:21.220Z,1.00
2019-02-04T00:25:02.766Z,1.00
2019-02-04T00:27:44.150Z,0.90
2019-02-04T00:30:25.655Z,0.90
2019-02-04T00:33:07.211Z,0.90
2019-02-04T00:35:48.740Z,0.90
2019-02-04T00:38:30.221Z,0.90
2019-02-04T00:40:59.756Z,0.90
2019-02-04T00:43:48.322Z,0.90
2019-02-04T00:46:37.032Z,0.70
2019-02-04T00:49:17.963Z,0.90
2019-02-04T00:51:59.376Z,1.10
2019-02-04T00:54:40.143Z,1.10
2019-02-04T00:57:21.665Z,1.10
2019-02-04T01:00:02.354Z,1.10
2019-02-04T01:02:43.048Z,1.10
2019-02-04T01:05:12.586Z,1.10
2019-02-04T01:08:01.088Z,1.20
2019-02-04T01:10:41.948Z,1.20
2019-02-04T01:13:23.031Z,1.20
2019-02-04T01:16:04.310Z,1.10
2019-02-04T01:18:45.678Z,1.10
2019-02-04T01:21:26.794Z,1.20
2019-02-04T01:24:08.096Z,1.20
2019-02-04T01:26:37.639Z,1.20
2019-02-04T01:29:26.001Z,1.20
2019-02-04T01:32:07.064Z,1.20
2019-02-04T01:34:48.959Z,1.20
2019-02-04T01:37:29.909Z,1.20
2019-02-04T01:40:10.714Z,1.20
2019-02-04T01:42:51.940Z,1.10
2019-02-04T01:45:33.441Z,1.10
2019-02-04T01:48:14.690Z,1.10
2019-02-04T01:50:55.627Z,1.10
2019-02-04T01:53:36.689Z,1.10
2019-02-04T01:56:18.047Z,1.20
2019-02-04T01:58:59.161Z,1.10
2019-02-04T02:01:40.377Z,1.10
2019-02-04T02:04:21.862Z,1.20
2019-02-04T02:07:03.311Z,1.10
2019-02-04T02:09:44.699Z,1.10
2019-02-04T02:12:26.001Z,1.10
2019-02-04T02:15:07.233Z,1.10
2019-02-04T02:17:48.641Z,1.10
2019-02-04T02:20:29.442Z,1.10
2019-02-04T02:23:10.314Z,1.10
2019-02-04T02:25:51.018Z,1.00
2019-02-04T02:28:22.482Z,1.10
2019-02-04T02:31:10.946Z,0.90
2019-02-04T02:33:59.437Z,1.00
2019-02-04T02:36:40.687Z,1.00
2019-02-04T02:39:21.991Z,1.00
2019-02-04T02:42:03.812Z,1.00
2019-02-04T02:44:45.219Z,1.00
2019-02-04T02:47:37.830Z,1.00
2019-02-04T02:49:57.616Z,0.90
2019-02-04T02:52:45.966Z,0.90
2019-02-04T02:55:26.936Z,0.90
2019-02-04T02:58:07.913Z,0.80
2019-02-04T03:00:49.317Z,0.80
2019-02-04T03:03:30.486Z,0.70
2019-02-04T03:06:11.616Z,0.70
2019-02-04T03:08:52.337Z,0.70
2019-02-04T03:11:32.999Z,0.80
2019-02-04T03:14:12.662Z,0.90
2019-02-04T03:16:53.535Z,0.90
2019-02-04T03:19:34.239Z,0.80
2019-02-04T03:22:14.913Z,0.90
2019-02-04T03:24:56.228Z,0.90
2019-02-04T03:27:37.610Z,0.90
2019-02-04T03:30:19.204Z,0.80
2019-02-04T03:33:00.298Z,0.90
2019-02-04T03:35:41.879Z,0.90
2019-02-04T03:38:22.568Z,0.90
2019-02-04T03:41:05.502Z,0.90
2019-02-04T03:43:47.129Z,1.00
2019-02-04T03:46:28.208Z,1.00
2019-02-04T03:49:09.425Z,1.00
2019-02-04T03:51:50.177Z,1.00
2019-02-04T03:54:31.820Z,1.10
2019-02-04T03:57:13.143Z,1.10
2019-02-04T03:59:57.010Z,1.00
2019-02-04T04:02:36.773Z,1.00
2019-02-04T04:05:17.908Z,0.90
2019-02-04T04:07:59.556Z,0.90
2019-02-04T04:10:41.173Z,0.80
2019-02-04T04:13:22.291Z,0.90
2019-02-04T04:16:03.597Z,0.80
2019-02-04T04:18:44.919Z,0.70
2019-02-04T04:21:26.221Z,0.70
2019-02-04T04:24:07.761Z,0.80
2019-02-04T04:26:37.200Z,0.80
2019-02-04T04:29:25.603Z,0.70
2019-02-04T04:32:14.026Z,0.80
2019-02-04T04:34:55.355Z,0.80
2019-02-04T04:37:36.766Z,0.80
2019-02-04T04:40:17.466Z,0.70
2019-02-04T04:42:58.624Z,0.70
2019-02-04T04:45:39.702Z,0.70
2019-02-04T04:48:26.593Z,0.70
2019-02-04T04:51:02.233Z,0.70
2019-02-04T04:53:50.925Z,0.70
2019-02-04T04:56:39.446Z,0.70
2019-02-04T04:59:20.582Z,0.70
2019-02-04T05:02:01.837Z,0.80
2019-02-04T05:04:42.424Z,0.80
2019-02-04T05:07:23.774Z,0.70
2019-02-04T05:10:05.107Z,0.70
2019-02-04T05:12:46.185Z,0.70
2019-02-04T05:15:27.293Z,0.70
2019-02-04T05:18:08.422Z,0.70
2019-02-04T05:20:38.045Z,0.80
2019-02-04T05:23:07.163Z,0.90
2019-02-04T05:25:55.770Z,1.00
2019-02-04T05:28:44.163Z,1.00
2019-02-04T05:31:25.204Z,1.00
2019-02-04T05:34:05.843Z,1.00
2019-02-04T05:36:46.437Z,1.00
2019-02-04T05:39:26.021Z,1.00
2019-02-04T05:42:06.713Z,1.10
2019-02-04T05:44:48.021Z,1.10
2019-02-04T05:47:28.783Z,1.10
2019-02-04T05:50:10.118Z,1.10
2019-02-04T05:52:51.539Z,1.10
2019-02-04T05:55:21.777Z,1.20
2019-02-04T05:57:50.960Z,1.20
2019-02-04T06:00:58.348Z,1.20
2019-02-04T06:03:46.926Z,1.20
2019-02-04T06:06:27.588Z,1.20
2019-02-04T06:09:08.526Z,1.20
2019-02-04T06:11:37.811Z,1.30
2019-02-04T06:14:08.843Z,1.20
2019-02-04T06:16:50.113Z,1.30
2019-02-04T06:19:31.361Z,1.30
2019-02-04T06:22:12.117Z,1.30
2019-02-04T06:24:53.301Z,1.30
2019-02-04T06:27:34.643Z,1.40
2019-02-04T06:30:15.489Z,1.30
2019-02-04T06:32:56.648Z,1.30
2019-02-04T06:35:37.708Z,1.40
2019-02-04T06:38:18.510Z,1.30
2019-02-04T06:40:59.903Z,1.30
2019-02-04T06:43:41.233Z,1.30
2019-02-04T06:46:22.383Z,1.30
2019-02-04T06:49:12.104Z,1.30
2019-02-04T06:51:45.770Z,1.30
2019-02-04T06:54:27.222Z,1.40
2019-02-04T06:57:07.894Z,1.40
2019-02-04T06:59:38.189Z,1.40
2019-02-04T07:02:07.315Z,1.40
2019-02-04T07:04:55.806Z,1.40
2019-02-04T07:07:44.451Z,1.40
2019-02-04T07:10:25.649Z,1.40
2019-02-04T07:13:06.508Z,1.40
2019-02-04T07:15:47.784Z,1.40
2019-02-04T07:18:28.986Z,1.40
2019-02-04T07:21:10.263Z,1.40
2019-02-04T07:23:51.479Z,1.40
2019-02-04T07:26:32.588Z,1.40
2019-02-04T07:29:13.916Z,1.40
2019-02-04T07:31:55.295Z,1.40
2019-02-04T07:34:35.943Z,1.40
2019-02-04T07:37:16.829Z,1.50
2019-02-04T07:39:46.370Z,1.50
2019-02-04T07:42:34.705Z,1.50
2019-02-04T07:45:23.242Z,1.50
2019-02-04T07:48:06.131Z,1.60
2019-02-04T07:50:49.591Z,1.60
2019-02-04T07:53:31.024Z,1.60
2019-02-04T07:56:00.418Z,1.60
2019-02-04T07:58:49.698Z,1.70
2019-02-04T08:01:38.196Z,1.70
2019-02-04T08:04:08.612Z,1.80
2019-02-04T08:06:57.169Z,1.80
2019-02-04T08:09:45.870Z,1.80
2019-02-04T08:12:34.342Z,1.80
2019-02-04T08:15:24.086Z,1.80
2019-02-04T08:18:12.502Z,1.90
2019-02-04T08:20:53.291Z,1.90
2019-02-04T08:23:34.968Z,1.90
2019-02-04T08:26:16.362Z,1.90
2019-02-04T08:28:57.689Z,2.00
2019-02-04T08:31:39.182Z,2.00
2019-02-04T08:34:20.333Z,2.10
2019-02-04T08:37:01.757Z,2.10
2019-02-04T08:39:42.404Z,2.10
2019-02-04T08:42:23.445Z,2.10
2019-02-04T08:45:11.850Z,2.20
2019-02-04T08:47:53.055Z,2.20
2019-02-04T08:50:34.031Z,2.20
2019-02-04T08:53:15.461Z,2.30
2019-02-04T08:55:44.669Z,2.30
2019-02-04T09:01:08.346Z,2.30
2019-02-04T09:03:50.571Z,2.40
2019-02-04T09:06:31.475Z,2.40
2019-02-04T09:09:12.454Z,2.40
2019-02-04T09:11:54.073Z,2.50
2019-02-04T09:14:34.724Z,2.50
2019-02-04T09:17:16.030Z,2.50
2019-02-04T09:20:09.419Z,2.60
2019-02-04T09:22:40.908Z,2.60
2019-02-04T09:25:21.512Z,2.60
2019-02-04T09:28:03.062Z,2.70
2019-02-04T09:30:43.546Z,2.70
2019-02-04T09:33:24.248Z,2.70
2019-02-04T09:36:05.144Z,2.70
2019-02-04T09:38:45.762Z,2.70
2019-02-04T09:41:26.932Z,2.80
2019-02-04T09:44:08.616Z,2.80
2019-02-04T09:46:50.020Z,2.80
2019-02-04T09:49:30.615Z,2.80
2019-02-04T09:52:12.181Z,2.80
2019-02-04T09:54:53.350Z,2.80
2019-02-04T09:57:35.916Z,2.90
2019-02-04T10:00:21.050Z,2.90
2019-02-04T10:03:01.851Z,2.90
2019-02-04T10:05:42.577Z,3.00
2019-02-04T10:08:23.821Z,3.00
2019-02-04T10:11:05.017Z,3.00
2019-02-04T10:13:46.209Z,3.10
2019-02-04T10:16:27.278Z,3.10
2019-02-04T10:19:08.702Z,3.10
2019-02-04T10:21:49.286Z,3.20
2019-02-04T10:24:30.417Z,3.20
2019-02-04T10:27:12.838Z,3.20
2019-02-04T10:29:55.074Z,3.20
2019-02-04T10:32:40.771Z,3.30
2019-02-04T10:35:29.217Z,3.30
2019-02-04T10:38:10.473Z,3.30
2019-02-04T10:40:52.056Z,3.30
2019-02-04T10:43:32.747Z,3.40
2019-02-04T10:46:13.791Z,3.40
2019-02-04T10:48:55.035Z,3.40
2019-02-04T10:51:35.584Z,3.40
2019-02-04T10:54:16.395Z,3.40
2019-02-04T10:56:57.414Z,3.40
2019-02-04T11:02:50.803Z,3.40
2019-02-04T11:05:32.410Z,3.40
2019-02-04T11:08:13.871Z,3.30
2019-02-04T11:11:03.772Z,3.20
2019-02-04T11:13:45.564Z,3.10
2019-02-04T11:16:26.587Z,3.00
2019-02-04T11:19:07.876Z,2.90
2019-02-04T11:21:49.239Z,2.80
2019-02-04T11:24:30.577Z,2.70
2019-02-04T11:27:12.226Z,2.70
2019-02-04T11:29:53.789Z,2.60
2019-02-04T11:32:36.014Z,2.60
2019-02-04T11:35:17.337Z,2.60
2019-02-04T11:37:58.952Z,2.60
2019-02-04T11:40:39.942Z,2.60
2019-02-04T11:43:21.266Z,2.70
2019-02-04T11:46:01.833Z,2.70
2019-02-04T11:48:43.485Z,2.50
2019-02-04T11:51:26.926Z,2.40
2019-02-04T11:54:09.354Z,2.40
2019-02-04T11:56:49.921Z,2.30
2019-02-04T11:59:30.688Z,2.30
2019-02-04T12:02:12.070Z,2.30
2019-02-04T12:04:53.328Z,2.30
2019-02-04T12:07:34.395Z,2.30
2019-02-04T12:10:15.628Z,2.30
2019-02-04T12:12:56.240Z,2.30
2019-02-04T12:15:40.147Z,2.20
2019-02-04T12:18:09.383Z,2.20
2019-02-04T12:20:39.935Z,2.20
2019-02-04T12:23:28.654Z,2.20
2019-02-04T12:26:18.681Z,2.30
2019-02-04T12:28:59.333Z,2.30
2019-02-04T12:31:40.617Z,2.20
2019-02-04T12:34:22.102Z,2.20
2019-02-04T12:37:03.797Z,2.20
2019-02-04T12:39:44.627Z,2.10
2019-02-04T12:42:25.503Z,2.10
2019-02-04T12:45:14.183Z,2.10
2019-02-04T12:48:02.479Z,2.10
2019-02-04T12:50:43.590Z,2.00
2019-02-04T12:53:32.268Z,1.90
2019-02-04T12:56:13.618Z,1.90
2019-02-04T12:58:55.903Z,1.90
2019-02-04T13:01:37.319Z,1.80
2019-02-04T13:04:18.708Z,1.80
2019-02-04T13:07:00.119Z,1.80
2019-02-04T13:09:41.455Z,1.80
2019-02-04T13:12:22.850Z,1.80
2019-02-04T13:15:03.996Z,1.80
2019-02-04T13:17:45.290Z,1.90
2019-02-04T13:20:22.791Z,1.90
2019-02-04T13:23:11.079Z,1.90
2019-02-04T13:25:59.697Z,2.00
2019-02-04T13:28:42.122Z,2.00
2019-02-04T13:31:22.934Z,2.10
2019-02-04T13:34:04.267Z,2.10
2019-02-04T13:36:45.374Z,1.90
2019-02-04T13:39:26.551Z,1.90
2019-02-04T13:42:09.735Z,1.80
2019-02-04T13:44:50.404Z,1.90
2019-02-04T13:47:31.873Z,1.90
2019-02-04T13:50:13.113Z,1.90
2019-02-04T13:52:54.443Z,1.90
2019-02-04T13:55:37.896Z,1.90
2019-02-04T13:58:21.535Z,2.00
2019-02-04T14:01:01.628Z,2.00
2019-02-04T14:03:30.851Z,2.10
2019-02-04T14:06:19.163Z,2.10
2019-02-04T14:09:02.212Z,2.10
2019-02-04T14:11:44.258Z,2.20
2019-02-04T14:14:24.888Z,2.20
2019-02-04T14:17:06.063Z,2.30
2019-02-04T14:19:46.730Z,2.30
2019-02-04T14:22:27.690Z,2.40
2019-02-04T14:25:08.750Z,2.40
2019-02-04T14:27:49.913Z,2.50
2019-02-04T14:30:30.937Z,2.40
2019-02-04T14:33:12.530Z,2.40
2019-02-04T14:35:53.345Z,2.50
2019-02-04T14:38:34.355Z,2.40
2019-02-04T14:41:04.731Z,2.40
2019-02-04T14:43:54.950Z,2.40
2019-02-04T14:46:36.265Z,2.40
2019-02-04T14:49:17.623Z,2.40
2019-02-04T14:51:59.089Z,2.40
2019-02-04T14:54:40.548Z,2.40
2019-02-04T14:57:21.885Z,2.40
2019-02-04T15:00:00.928Z,2.40
2019-02-04T15:03:19.481Z,2.40
2019-02-04T15:05:52.960Z,2.40
2019-02-04T15:08:34.000Z,2.50
2019-02-04T15:11:15.031Z,2.50
2019-02-04T15:13:56.900Z,2.50
2019-02-04T15:16:38.127Z,2.50
2019-02-04T15:19:45.722Z,2.50
2019-02-04T15:22:40.926Z,2.50
2019-02-04T15:25:24.072Z,2.50
2019-02-04T15:28:31.742Z,2.50
2019-02-04T15:31:12.719Z,2.40
2019-02-04T15:34:05.931Z,2.40
2019-02-04T15:37:13.507Z,2.40
2019-02-04T15:39:54.373Z,2.50
2019-02-04T15:42:34.969Z,2.50
2019-02-04T15:45:26.206Z,2.50
2019-02-04T15:48:33.851Z,2.50
2019-02-04T15:51:27.887Z,2.50
2019-02-04T15:57:22.385Z,2.60
2019-02-04T16:00:03.523Z,2.60
2019-02-04T16:02:45.053Z,2.60
2019-02-04T16:05:26.559Z,2.70
2019-02-04T16:08:07.905Z,2.60
2019-02-04T16:10:49.359Z,2.60
2019-02-04T16:13:31.297Z,2.70
2019-02-04T16:16:12.310Z,2.70
2019-02-04T16:18:43.829Z,2.70
2019-02-04T16:21:34.316Z,2.70
2019-02-04T16:24:15.643Z,2.70
2019-02-04T16:26:56.758Z,2.70
2019-02-04T16:29:26.476Z,2.70
2019-02-04T16:35:03.036Z,2.80
2019-02-04T16:37:44.910Z,2.80
2019-02-04T16:40:26.320Z,2.70
2019-02-04T16:43:07.442Z,2.70
2019-02-04T16:45:48.843Z,2.80
2019-02-04T16:48:18.063Z,2.80
2019-02-04T16:51:11.557Z,2.80
2019-02-04T16:56:42.543Z,2.80
2019-02-04T16:59:23.871Z,2.80
2019-02-04T17:01:53.121Z,2.80
2019-02-04T17:04:41.663Z,2.90
2019-02-04T17:07:23.313Z,2.90
2019-02-04T17:10:04.395Z,2.90
2019-02-04T17:12:45.857Z,2.80
2019-02-04T17:15:15.486Z,2.80
2019-02-04T17:18:05.568Z,2.90
2019-02-04T17:20:48.349Z,2.90
2019-02-04T17:23:29.410Z,2.90
2019-02-04T17:26:10.677Z,2.90
2019-02-04T17:28:52.262Z,2.90
2019-02-04T17:31:33.692Z,2.90
2019-02-04T17:34:14.798Z,2.90
2019-02-04T17:36:56.174Z,2.90
2019-02-04T17:39:37.678Z,2.90
2019-02-04T17:42:18.304Z,2.90
2019-02-04T17:44:59.526Z,2.90
2019-02-04T17:47:40.747Z,2.90
2019-02-04T17:50:21.542Z,2.90
2019-02-04T17:53:02.830Z,2.90
2019-02-04T17:55:44.424Z,2.90
2019-02-04T17:58:32.971Z,2.90
2019-02-04T18:01:21.525Z,2.90
2019-02-04T18:04:03.005Z,2.90
2019-02-04T18:06:44.212Z,2.90
2019-02-04T18:09:25.493Z,3.00
2019-02-04T18:12:06.950Z,3.00
2019-02-04T18:14:37.131Z,2.90
2019-02-04T18:17:06.361Z,3.00
2019-02-04T18:19:54.785Z,2.90
2019-02-04T18:22:43.347Z,2.90
2019-02-04T18:25:24.601Z,2.90
2019-02-04T18:28:05.333Z,3.00
2019-02-04T18:30:47.089Z,3.00
2019-02-04T18:33:17.472Z,3.00
2019-02-04T18:36:05.904Z,3.00
2019-02-04T18:38:54.435Z,3.00
2019-02-04T18:41:35.923Z,3.00
2019-02-04T18:44:17.370Z,3.00
2019-02-04T18:46:58.389Z,3.00
2019-02-04T18:49:38.992Z,3.00
2019-02-04T18:52:19.564Z,3.00
2019-02-04T18:55:00.324Z,3.00
2019-02-04T18:57:41.710Z,3.00
2019-02-04T19:00:23.166Z,3.00
2019-02-04T19:03:03.690Z,3.00
2019-02-04T19:05:45.150Z,3.00
2019-02-04T19:08:26.322Z,3.00
2019-02-04T19:11:07.459Z,3.00
2019-02-04T19:13:49.114Z,3.00
2019-02-04T19:16:18.427Z,3.00
2019-02-04T19:19:06.781Z,3.00
2019-02-04T19:21:55.104Z,3.00
2019-02-04T19:24:40.501Z,3.00
2019-02-04T19:27:21.971Z,3.00
2019-02-04T19:30:03.291Z,3.00
2019-02-04T19:32:44.717Z,3.00
2019-02-04T19:35:26.087Z,3.00
2019-02-04T19:37:56.058Z,3.00
2019-02-04T19:40:44.947Z,3.00
2019-02-04T19:43:15.860Z,3.00
2019-02-04T19:46:24.718Z,3.00
2019-02-04T19:49:05.961Z,3.00
2019-02-04T19:51:47.171Z,3.30
2019-02-04T19:54:28.408Z,3.10
2019-02-04T19:57:09.802Z,3.00
2019-02-04T19:59:51.128Z,3.00
2019-02-04T20:02:32.176Z,3.00
2019-02-04T20:05:13.042Z,3.00
2019-02-04T20:07:54.330Z,3.00
2019-02-04T20:10:35.934Z,3.00
2019-02-04T20:13:17.175Z,3.00
2019-02-04T20:15:58.232Z,3.00
2019-02-04T20:18:39.687Z,3.00
2019-02-04T20:21:21.146Z,3.00
2019-02-04T20:24:00.977Z,3.00
2019-02-04T20:26:49.327Z,3.00
2019-02-04T20:29:30.048Z,3.00
2019-02-04T20:32:09.617Z,3.00
2019-02-04T20:34:51.104Z,3.00
2019-02-04T20:37:32.347Z,3.10
2019-02-04T20:40:13.853Z,3.10
2019-02-04T20:42:55.272Z,3.10
2019-02-04T20:45:36.899Z,3.10
2019-02-04T20:48:18.317Z,3.10
2019-02-04T20:50:48.443Z,3.10
2019-02-04T20:53:36.900Z,3.00
2019-02-04T20:56:06.076Z,3.10
2019-02-04T20:58:54.810Z,3.00
2019-02-04T21:01:37.242Z,3.10
2019-02-04T21:04:18.514Z,3.10
2019-02-04T21:06:59.882Z,3.10
2019-02-04T21:09:41.137Z,3.10
2019-02-04T21:12:22.220Z,3.10
2019-02-04T21:15:03.712Z,3.10
2019-02-04T21:17:45.018Z,3.10
2019-02-04T21:23:24.478Z,3.10
2019-02-04T21:26:06.903Z,3.10
2019-02-04T21:28:48.006Z,3.10
2019-02-04T21:31:29.439Z,3.10
2019-02-04T21:34:10.408Z,3.10
2019-02-04T21:36:51.525Z,3.10
2019-02-04T21:39:33.018Z,3.10
2019-02-04T21:42:14.592Z,3.10
2019-02-04T21:44:55.519Z,3.10
2019-02-04T21:47:36.871Z,3.10
2019-02-04T21:50:18.213Z,3.10
2019-02-04T21:52:59.733Z,3.10
2019-02-04T21:55:40.526Z,3.10
2019-02-04T21:58:21.888Z,3.10
2019-02-04T22:01:10.438Z,3.10
2019-02-04T22:03:58.908Z,3.10
2019-02-04T22:06:40.423Z,3.10
2019-02-04T22:12:19.082Z,3.10
2019-02-04T22:18:01.141Z,3.10
2019-02-04T22:20:41.708Z,3.20
2019-02-04T22:23:22.708Z,3.10
2019-02-04T22:26:11.396Z,3.10
2019-02-04T22:28:43.196Z,3.20
2019-02-04T22:31:31.714Z,3.20
2019-02-04T22:34:12.723Z,3.20
2019-02-04T22:36:54.100Z,3.20
2019-02-04T22:39:35.598Z,3.20
2019-02-04T22:42:17.068Z,3.20
2019-02-04T22:44:57.685Z,3.20
2019-02-04T22:47:38.607Z,3.20
2019-02-04T22:50:29.763Z,3.20
2019-02-04T22:53:18.455Z,3.20
2019-02-04T22:55:59.164Z,3.20
2019-02-04T22:58:40.501Z,3.20
2019-02-04T23:01:21.864Z,3.20
2019-02-04T23:04:03.207Z,3.20
2019-02-04T23:06:44.055Z,3.20
2019-02-04T23:09:24.958Z,3.30
2019-02-04T23:12:05.807Z,3.30
2019-02-04T23:14:47.243Z,3.30
2019-02-04T23:17:28.036Z,3.30
2019-02-04T23:20:08.986Z,3.30
2019-02-04T23:22:50.461Z,3.30
2019-02-04T23:25:42.639Z,3.30
2019-02-04T23:28:14.157Z,3.30
2019-02-04T23:30:55.454Z,3.30
2019-02-04T23:33:36.792Z,3.30
2019-02-04T23:36:17.440Z,3.30
2019-02-04T23:38:58.772Z,3.30
2019-02-04T23:41:40.234Z,3.30
2019-02-04T23:44:21.357Z,3.30
2019-02-04T23:47:02.348Z,3.30
2019-02-04T23:49:43.803Z,3.30
2019-02-04T23:52:24.855Z,3.30
2019-02-04T23:55:06.168Z,3.30
2019-02-04T23:57:47.481Z,3.30
